createdAt,value
2017-12-01T00:01:08.560Z,18.70
2017-12-01T00:03:34.347Z,19.87
2017-12-01T00:06:00.148Z,18.90
2017-12-01T00:08:25.959Z,20.03
2017-12-01T00:10:51.751Z,19.27
2017-12-01T00:13:17.543Z,19.53
2017-12-01T00:15:43.345Z,18.70
2017-12-01T00:18:09.132Z,17.90
2017-12-01T00:20:34.950Z,19.57
2017-12-01T00:23:00.734Z,18.57
2017-12-01T00:25:26.542Z,19.17
2017-12-01T00:27:52.367Z,19.30
2017-12-01T00:30:18.163Z,22.07
2017-12-01T00:32:43.927Z,20.60
2017-12-01T00:35:09.737Z,20.30
2017-12-01T00:37:35.582Z,20.47
2017-12-01T00:40:01.375Z,19.60
2017-12-01T00:42:27.192Z,18.80
2017-12-01T00:44:52.987Z,19.57
2017-12-01T00:47:18.772Z,19.53
2017-12-01T00:49:44.933Z,18.17
2017-12-01T00:52:10.741Z,17.60
2017-12-01T00:54:36.546Z,20.70
2017-12-01T00:57:02.357Z,20.17
2017-12-01T00:59:28.219Z,19.67
2017-12-01T01:01:54.415Z,19.00
2017-12-01T01:04:20.320Z,19.35
2017-12-01T01:06:46.162Z,18.60
2017-12-01T01:09:11.960Z,19.20
2017-12-01T01:11:37.767Z,18.97
2017-12-01T01:14:03.588Z,20.03
2017-12-01T01:16:29.374Z,19.63
2017-12-01T01:18:55.154Z,18.40
2017-12-01T01:21:21.307Z,18.27
2017-12-01T01:23:47.110Z,18.05
2017-12-01T01:26:12.899Z,18.97
2017-12-01T01:28:38.695Z,19.67
2017-12-01T01:31:04.490Z,18.37
2017-12-01T01:33:30.291Z,19.80
2017-12-01T01:35:56.089Z,19.90
2017-12-01T01:38:21.871Z,19.40
2017-12-01T01:40:47.662Z,21.07
2017-12-01T01:43:13.718Z,20.30
2017-12-01T01:45:39.499Z,19.55
2017-12-01T01:48:05.278Z,19.00
2017-12-01T01:50:31.088Z,18.50
2017-12-01T01:52:56.879Z,19.73
2017-12-01T01:55:22.715Z,21.27
2017-12-01T01:57:48.515Z,21.57
2017-12-01T02:00:14.330Z,20.20
2017-12-01T02:02:40.168Z,19.63
2017-12-01T02:05:05.978Z,19.80
2017-12-01T02:07:31.766Z,22.03
2017-12-01T02:09:57.606Z,22.00
2017-12-01T02:12:23.403Z,21.97
2017-12-01T02:14:49.196Z,18.80
2017-12-01T02:17:15.333Z,20.23
2017-12-01T02:19:41.151Z,19.40
2017-12-01T02:22:06.952Z,22.50
2017-12-01T02:24:32.781Z,21.13
2017-12-01T02:26:58.579Z,21.40
2017-12-01T02:29:24.378Z,22.40
2017-12-01T02:31:50.170Z,20.00
2017-12-01T02:34:15.979Z,20.73
2017-12-01T02:36:41.790Z,20.93
2017-12-01T02:39:08.009Z,21.63
2017-12-01T02:41:33.882Z,21.55
2017-12-01T02:43:59.654Z,20.50
2017-12-01T02:46:25.484Z,20.30
2017-12-01T02:48:51.288Z,19.90
2017-12-01T02:51:17.081Z,21.47
2017-12-01T02:53:42.917Z,19.60
2017-12-01T02:56:08.722Z,19.73
2017-12-01T02:58:34.540Z,19.80
2017-12-01T03:01:00.379Z,20.90
2017-12-01T03:03:26.359Z,21.60
2017-12-01T03:05:52.195Z,21.02
2017-12-01T03:08:18.050Z,20.37
2017-12-01T03:10:43.867Z,20.53
2017-12-01T03:13:09.685Z,20.33
2017-12-01T03:15:35.519Z,20.47
2017-12-01T03:18:01.311Z,20.13
2017-12-01T03:20:27.110Z,18.97
2017-12-01T03:22:52.911Z,19.80
2017-12-01T03:25:18.734Z,20.50
2017-12-01T03:27:44.552Z,20.20
2017-12-01T03:30:10.342Z,20.00
2017-12-01T03:32:36.157Z,18.43
2017-12-01T03:35:02.000Z,18.20
2017-12-01T03:37:27.806Z,18.10
2017-12-01T03:39:53.614Z,19.30
2017-12-01T03:42:19.511Z,17.70
2017-12-01T03:44:45.288Z,18.40
2017-12-01T03:47:11.095Z,17.70
2017-12-01T03:49:36.907Z,17.90
2017-12-01T03:52:02.704Z,17.80
2017-12-01T03:54:28.781Z,17.63
2017-12-01T03:56:54.578Z,17.50
2017-12-01T03:59:20.377Z,17.83
2017-12-01T04:01:46.183Z,17.83
2017-12-01T04:04:11.967Z,18.40
2017-12-01T04:06:37.800Z,15.37
2017-12-01T04:09:03.614Z,16.90
2017-12-01T04:11:29.414Z,18.57
2017-12-01T04:13:55.242Z,15.40
2017-12-01T04:16:21.033Z,17.67
2017-12-01T04:18:46.862Z,16.80
2017-12-01T04:21:12.888Z,17.07
2017-12-01T04:23:38.680Z,16.08
2017-12-01T04:26:04.482Z,16.33
2017-12-01T04:28:30.322Z,18.87
2017-12-01T04:30:56.143Z,16.07
2017-12-01T04:33:21.989Z,16.80
2017-12-01T04:35:47.834Z,17.97
2017-12-01T04:38:13.662Z,11.20
2017-12-01T04:40:39.471Z,17.80
2017-12-01T04:43:05.306Z,18.37
2017-12-01T04:45:31.098Z,16.47
2017-12-01T04:47:56.920Z,16.50
2017-12-01T04:50:22.739Z,16.60
2017-12-01T04:52:48.539Z,16.57
2017-12-01T04:55:14.354Z,16.43
2017-12-01T04:57:40.202Z,15.63
2017-12-01T05:00:06.006Z,15.93
2017-12-01T05:02:31.807Z,14.47
2017-12-01T05:04:57.638Z,14.80
2017-12-01T05:07:23.442Z,15.60
2017-12-01T05:09:49.235Z,14.10
2017-12-01T05:12:15.113Z,16.87
2017-12-01T05:14:40.902Z,14.87
2017-12-01T05:17:06.717Z,15.17
2017-12-01T05:19:32.826Z,15.07
2017-12-01T05:21:58.640Z,15.80
2017-12-01T05:24:24.458Z,14.93
2017-12-01T05:26:50.259Z,14.80
2017-12-01T05:29:16.060Z,11.27
2017-12-01T05:31:41.865Z,16.73
2017-12-01T05:34:07.834Z,15.80
2017-12-01T05:36:33.661Z,17.30
2017-12-01T05:38:59.508Z,14.97
2017-12-01T05:41:25.595Z,14.30
2017-12-01T05:43:51.402Z,14.25
2017-12-01T05:46:17.203Z,15.00
2017-12-01T05:48:43.023Z,13.23
2017-12-01T05:51:08.837Z,14.80
2017-12-01T05:53:34.639Z,15.30
2017-12-01T05:56:00.718Z,15.50
2017-12-01T05:58:26.522Z,14.50
2017-12-01T06:00:52.335Z,14.63
2017-12-01T06:03:18.484Z,16.07
2017-12-01T06:05:44.300Z,15.63
2017-12-01T06:08:10.119Z,14.30
2017-12-01T06:10:36.075Z,13.60
2017-12-01T06:13:01.903Z,16.50
2017-12-01T06:15:27.708Z,14.87
2017-12-01T06:17:54.615Z,14.40
2017-12-01T06:20:20.434Z,15.77
2017-12-01T06:22:46.243Z,16.13
2017-12-01T06:25:12.085Z,15.80
2017-12-01T06:27:37.917Z,15.73
2017-12-01T06:30:03.739Z,16.57
2017-12-01T06:32:29.847Z,16.27
2017-12-01T06:34:55.649Z,15.23
2017-12-01T06:37:21.454Z,17.37
2017-12-01T06:39:47.291Z,16.50
2017-12-01T06:42:13.179Z,16.70
2017-12-01T06:44:38.984Z,17.30
2017-12-01T06:47:04.807Z,16.57
2017-12-01T06:49:30.610Z,15.10
2017-12-01T06:51:56.402Z,15.60
2017-12-01T06:54:22.210Z,15.70
2017-12-01T06:56:48.011Z,16.80
2017-12-01T06:59:13.809Z,16.97
2017-12-01T07:01:39.639Z,15.97
2017-12-01T07:04:05.435Z,16.00
2017-12-01T07:09:04.005Z,15.82
2017-12-01T07:11:30.092Z,17.87
2017-12-01T07:13:55.893Z,15.82
2017-12-01T07:16:21.675Z,16.80
2017-12-01T07:18:47.496Z,16.80
2017-12-01T07:21:13.280Z,17.57
2017-12-01T07:23:39.076Z,16.90
2017-12-01T07:26:17.176Z,16.47
2017-12-01T07:28:42.943Z,18.33
2017-12-01T07:31:08.727Z,18.33
2017-12-01T07:33:34.848Z,19.40
2017-12-01T07:36:00.650Z,17.80
2017-12-01T07:38:26.442Z,20.40
2017-12-01T07:40:53.106Z,16.52
2017-12-01T07:43:18.904Z,17.27
2017-12-01T07:45:44.709Z,18.10
2017-12-01T07:48:10.540Z,16.97
2017-12-01T07:50:36.347Z,15.57
2017-12-01T07:53:02.159Z,17.07
2017-12-01T07:55:28.088Z,16.47
2017-12-01T07:57:53.904Z,17.53
2017-12-01T08:00:19.737Z,18.77
2017-12-01T08:02:45.541Z,18.30
2017-12-01T08:05:11.352Z,17.30
2017-12-01T08:07:37.165Z,17.37
2017-12-01T08:10:03.029Z,16.87
2017-12-01T08:12:28.838Z,17.97
2017-12-01T08:14:55.795Z,17.77
2017-12-01T08:17:28.887Z,17.33
2017-12-01T08:19:54.723Z,24.58
2017-12-01T08:22:32.900Z,19.03
2017-12-01T08:25:11.299Z,17.50
2017-12-01T08:27:37.101Z,16.05
2017-12-01T08:30:02.934Z,16.60
2017-12-01T08:32:28.747Z,18.20
2017-12-01T08:34:54.528Z,16.90
2017-12-01T08:37:20.631Z,17.93
2017-12-01T08:39:46.431Z,15.80
2017-12-01T08:42:12.246Z,19.23
2017-12-01T08:44:38.064Z,18.43
2017-12-01T08:47:03.871Z,20.00
2017-12-01T08:49:29.668Z,19.40
2017-12-01T08:51:56.046Z,16.63
2017-12-01T08:54:22.530Z,19.50
2017-12-01T08:56:48.332Z,19.15
2017-12-01T08:59:14.138Z,15.63
2017-12-01T09:01:40.023Z,17.53
2017-12-01T09:04:06.143Z,14.50
2017-12-01T09:06:32.194Z,15.65
2017-12-01T09:08:58.701Z,13.90
2017-12-01T09:11:24.483Z,15.13
2017-12-01T09:13:50.695Z,15.50
2017-12-01T09:16:17.270Z,16.25
2017-12-01T09:18:44.051Z,46.78
2017-12-01T09:21:10.654Z,16.05
2017-12-01T09:23:36.471Z,18.67
2017-12-01T09:26:03.050Z,15.10
2017-12-01T09:28:28.911Z,14.48
2017-12-01T09:30:54.729Z,14.30
2017-12-01T09:33:20.539Z,17.33
2017-12-01T09:35:46.322Z,17.10
2017-12-01T09:38:12.135Z,15.93
2017-12-01T09:40:37.959Z,15.97
2017-12-01T09:43:03.783Z,15.33
2017-12-01T09:45:29.584Z,16.23
2017-12-01T09:47:55.714Z,16.20
2017-12-01T09:50:21.514Z,15.38
2017-12-01T09:52:47.334Z,15.97
2017-12-01T09:55:13.984Z,15.07
2017-12-01T09:57:39.767Z,15.23
2017-12-01T10:00:05.591Z,14.57
2017-12-01T10:02:31.402Z,15.07
2017-12-01T10:04:57.201Z,13.77
2017-12-01T10:07:22.997Z,12.80
2017-12-01T10:09:48.813Z,16.13
2017-12-01T10:12:14.609Z,15.90
2017-12-01T10:14:40.395Z,17.70
2017-12-01T10:17:06.251Z,14.10
2017-12-01T10:19:32.054Z,20.00
2017-12-01T10:21:57.843Z,14.47
2017-12-01T10:24:23.911Z,15.63
2017-12-01T10:26:49.692Z,16.15
2017-12-01T10:29:15.479Z,16.27
2017-12-01T10:31:41.300Z,15.60
2017-12-01T10:34:07.096Z,16.27
2017-12-01T10:36:32.887Z,18.50
2017-12-01T10:38:58.698Z,16.43
2017-12-01T10:41:24.494Z,16.10
2017-12-01T10:43:50.285Z,19.93
2017-12-01T10:46:16.228Z,16.70
2017-12-01T10:48:42.777Z,14.37
2017-12-01T10:51:08.921Z,15.23
2017-12-01T10:53:34.967Z,15.85
2017-12-01T10:56:02.210Z,19.40
2017-12-01T10:58:28.107Z,16.33
2017-12-01T11:01:01.330Z,33.80
2017-12-01T11:03:27.779Z,17.30
2017-12-01T11:05:54.132Z,14.52
2017-12-01T11:08:20.237Z,16.50
2017-12-01T11:10:46.083Z,18.70
2017-12-01T11:13:11.938Z,16.97
2017-12-01T11:15:37.966Z,15.50
2017-12-01T11:18:04.461Z,16.42
2017-12-01T11:20:30.979Z,16.65
2017-12-01T11:22:57.079Z,18.12
2017-12-01T11:25:22.955Z,21.92
2017-12-01T11:27:48.774Z,19.60
2017-12-01T11:30:14.576Z,17.80
2017-12-01T11:32:40.352Z,15.57
2017-12-01T11:35:06.165Z,19.97
2017-12-01T11:37:31.960Z,16.67
2017-12-01T11:39:58.436Z,16.30
2017-12-01T11:42:24.476Z,17.10
2017-12-01T11:44:50.336Z,16.00
2017-12-01T11:47:16.103Z,15.40
2017-12-01T11:49:41.914Z,15.70
2017-12-01T11:52:08.406Z,15.20
2017-12-01T11:54:34.792Z,16.98
2017-12-01T11:57:00.861Z,15.02
2017-12-01T11:59:26.733Z,17.08
2017-12-01T12:01:52.543Z,15.20
2017-12-01T12:04:19.010Z,15.53
2017-12-01T12:06:45.576Z,15.23
2017-12-01T12:09:11.927Z,15.85
2017-12-01T12:11:38.657Z,16.08
2017-12-01T12:14:04.656Z,16.75
2017-12-01T12:16:30.624Z,15.45
2017-12-01T12:18:56.838Z,15.50
2017-12-01T12:21:22.873Z,16.17
2017-12-01T12:23:49.366Z,15.80
2017-12-01T12:26:15.820Z,16.57
2017-12-01T12:28:41.969Z,16.25
2017-12-01T12:31:07.857Z,14.52
2017-12-01T12:33:33.667Z,16.43
2017-12-01T12:35:59.468Z,14.80
2017-12-01T12:38:25.982Z,15.43
2017-12-01T12:40:52.460Z,14.45
2017-12-01T12:43:18.914Z,13.70
2017-12-01T12:45:45.199Z,14.52
2017-12-01T12:48:11.082Z,12.63
2017-12-01T12:50:36.936Z,14.07
2017-12-01T12:53:02.747Z,13.10
2017-12-01T12:55:29.321Z,14.50
2017-12-01T12:57:55.888Z,29.30
2017-12-01T13:00:22.031Z,21.40
2017-12-01T13:02:47.886Z,14.65
2017-12-01T13:05:13.704Z,14.20
2017-12-01T13:07:39.503Z,12.73
2017-12-01T13:10:05.836Z,13.00
2017-12-01T13:12:31.875Z,12.07
2017-12-01T13:14:57.743Z,12.40
2017-12-01T13:17:23.555Z,12.20
2017-12-01T13:19:49.553Z,13.50
2017-12-01T13:22:15.358Z,11.57
2017-12-01T13:24:42.030Z,10.40
2017-12-01T13:27:07.899Z,11.38
2017-12-01T13:29:33.721Z,12.30
2017-12-01T13:31:59.532Z,11.00
2017-12-01T13:34:26.874Z,11.30
2017-12-01T13:36:53.039Z,10.45
2017-12-01T13:39:18.842Z,15.75
2017-12-01T13:41:45.291Z,11.57
2017-12-01T13:44:11.083Z,13.82
2017-12-01T13:46:37.550Z,15.93
2017-12-01T13:49:03.422Z,11.00
2017-12-01T13:51:30.367Z,10.73
2017-12-01T13:53:56.951Z,11.10
2017-12-01T13:56:23.370Z,10.55
2017-12-01T13:58:49.544Z,10.48
2017-12-01T14:01:16.234Z,11.50
2017-12-01T14:03:42.503Z,10.77
2017-12-01T14:06:09.348Z,11.63
2017-12-01T14:08:35.987Z,11.98
2017-12-01T14:11:01.784Z,11.32
2017-12-01T14:13:27.634Z,11.90
2017-12-01T14:15:53.969Z,11.67
2017-12-01T14:18:20.364Z,11.75
2017-12-01T14:20:46.900Z,11.73
2017-12-01T14:23:13.487Z,13.25
2017-12-01T14:25:39.888Z,13.90
2017-12-01T14:28:05.949Z,13.62
2017-12-01T14:30:31.850Z,16.55
2017-12-01T14:32:57.635Z,16.10
2017-12-01T14:35:23.438Z,13.93
2017-12-01T14:37:49.855Z,15.90
2017-12-01T14:40:16.044Z,14.57
2017-12-01T14:42:42.028Z,14.93
2017-12-01T14:45:08.244Z,15.10
2017-12-01T14:47:34.653Z,13.80
2017-12-01T14:50:00.540Z,13.62
2017-12-01T14:52:27.399Z,13.30
2017-12-01T14:54:53.721Z,13.10
2017-12-01T14:57:19.603Z,12.48
2017-12-01T14:59:45.672Z,12.97
2017-12-01T15:02:11.463Z,14.13
2017-12-01T15:04:37.562Z,11.87
2017-12-01T15:07:04.063Z,14.27
2017-12-01T15:09:30.491Z,13.55
2017-12-01T15:11:57.006Z,13.48
2017-12-01T15:14:23.607Z,14.45
2017-12-01T15:16:50.109Z,14.73
2017-12-01T15:19:16.279Z,14.23
2017-12-01T15:21:42.137Z,15.40
2017-12-01T15:24:07.958Z,13.70
2017-12-01T15:26:33.780Z,14.00
2017-12-01T15:28:59.988Z,12.90
2017-12-01T15:31:26.655Z,14.40
2017-12-01T15:33:53.260Z,13.23
2017-12-01T15:36:19.771Z,13.40
2017-12-01T15:38:46.147Z,12.73
2017-12-01T15:41:12.316Z,14.05
2017-12-01T15:43:38.179Z,14.75
2017-12-01T15:46:03.967Z,14.40
2017-12-01T15:48:29.973Z,16.00
2017-12-01T15:50:56.148Z,14.50
2017-12-01T15:53:22.620Z,15.98
2017-12-01T15:55:49.399Z,16.87
2017-12-01T15:58:15.846Z,17.45
2017-12-01T16:00:42.357Z,16.17
2017-12-01T16:03:08.675Z,15.95
2017-12-01T16:05:34.749Z,16.70
2017-12-01T16:08:00.635Z,15.95
2017-12-01T16:10:26.460Z,14.90
2017-12-01T16:12:52.431Z,15.77
2017-12-01T16:15:18.856Z,15.80
2017-12-01T16:17:45.313Z,15.25
2017-12-01T16:20:11.794Z,16.25
2017-12-01T16:22:38.004Z,15.77
2017-12-01T16:25:03.852Z,15.05
2017-12-01T16:27:29.668Z,14.30
2017-12-01T16:29:55.663Z,17.23
2017-12-01T16:32:22.231Z,36.17
2017-12-01T16:34:48.022Z,45.88
2017-12-01T16:37:14.441Z,23.30
2017-12-01T16:39:40.392Z,15.20
2017-12-01T16:42:06.250Z,14.10
2017-12-01T16:44:32.089Z,13.93
2017-12-01T16:46:57.882Z,14.17
2017-12-01T16:49:23.722Z,15.37
2017-12-01T16:51:49.523Z,17.67
2017-12-01T16:54:15.331Z,14.93
2017-12-01T16:56:41.363Z,15.10
2017-12-01T16:59:07.192Z,14.98
2017-12-01T17:01:33.010Z,16.60
2017-12-01T17:03:58.855Z,14.30
2017-12-01T17:06:24.761Z,14.07
2017-12-01T17:08:50.591Z,15.73
2017-12-01T17:11:16.428Z,16.73
2017-12-01T17:13:42.247Z,15.87
2017-12-01T17:16:08.038Z,35.73
2017-12-01T17:18:33.866Z,31.67
2017-12-01T17:20:59.686Z,20.30
2017-12-01T17:23:25.494Z,16.70
2017-12-01T17:25:51.602Z,23.97
2017-12-01T17:28:17.410Z,25.67
2017-12-01T17:30:43.202Z,20.07
2017-12-01T17:33:09.006Z,15.07
2017-12-01T17:35:35.086Z,20.70
2017-12-01T17:38:00.899Z,27.42
2017-12-01T17:40:26.702Z,32.90
2017-12-01T17:42:52.502Z,27.83
2017-12-01T17:45:18.337Z,24.63
2017-12-01T17:47:44.133Z,26.77
2017-12-01T17:50:09.955Z,22.90
2017-12-01T17:52:35.774Z,24.77
2017-12-01T17:55:01.606Z,25.00
2017-12-01T17:57:27.426Z,24.70
2017-12-01T17:59:53.816Z,26.07
2017-12-01T18:02:19.602Z,26.40
2017-12-01T18:04:45.718Z,28.77
2017-12-01T18:07:11.507Z,29.37
2017-12-01T18:09:37.314Z,26.90
2017-12-01T18:12:03.432Z,26.27
2017-12-01T18:14:29.214Z,22.15
2017-12-01T18:16:55.003Z,21.53
2017-12-01T18:19:20.814Z,23.23
2017-12-01T18:21:46.627Z,21.47
2017-12-01T18:24:12.418Z,22.00
2017-12-01T18:26:38.285Z,26.80
2017-12-01T18:29:04.078Z,21.30
2017-12-01T18:31:29.862Z,19.97
2017-12-01T18:33:55.690Z,20.03
2017-12-01T18:36:21.509Z,18.67
2017-12-01T18:38:47.335Z,20.40
2017-12-01T18:41:13.154Z,20.20
2017-12-01T18:43:38.951Z,21.30
2017-12-01T18:46:04.751Z,19.40
2017-12-01T18:48:30.560Z,20.57
2017-12-01T18:50:56.370Z,20.33
2017-12-01T18:53:22.186Z,22.47
2017-12-01T18:55:48.029Z,25.17
2017-12-01T18:58:13.831Z,21.30
2017-12-01T19:00:39.683Z,22.20
2017-12-01T19:03:05.591Z,23.13
2017-12-01T19:05:31.394Z,21.23
2017-12-01T19:07:57.231Z,21.80
2017-12-01T19:10:23.215Z,22.70
2017-12-01T19:12:49.036Z,21.97
2017-12-01T19:15:14.841Z,22.13
2017-12-01T19:17:40.712Z,22.63
2017-12-01T19:20:06.530Z,21.57
2017-12-01T19:22:32.346Z,35.70
2017-12-01T19:24:58.170Z,23.57
2017-12-01T19:27:24.004Z,22.77
2017-12-01T19:29:49.909Z,19.90
2017-12-01T19:32:15.802Z,24.43
2017-12-01T19:34:41.666Z,23.77
2017-12-01T19:37:07.556Z,20.60
2017-12-01T19:39:33.417Z,23.33
2017-12-01T19:41:59.250Z,21.80
2017-12-01T19:44:25.137Z,19.07
2017-12-01T19:46:50.935Z,19.40
2017-12-01T19:49:16.792Z,19.93
2017-12-01T19:51:42.694Z,23.30
2017-12-01T19:54:08.519Z,24.73
2017-12-01T19:56:34.370Z,20.13
2017-12-01T19:59:00.252Z,25.37
2017-12-01T20:01:26.099Z,18.70
2017-12-01T20:03:51.960Z,33.50
2017-12-01T20:06:17.778Z,19.33
2017-12-01T20:08:43.575Z,17.30
2017-12-01T20:11:09.793Z,19.87
2017-12-01T20:13:35.654Z,21.90
2017-12-01T20:16:01.519Z,27.87
2017-12-01T20:18:27.401Z,25.30
2017-12-01T20:20:53.273Z,27.10
2017-12-01T20:23:19.142Z,24.07
2017-12-01T20:25:45.028Z,19.77
2017-12-01T20:28:10.917Z,26.40
2017-12-01T20:30:36.800Z,20.53
2017-12-01T20:33:02.694Z,21.30
2017-12-01T20:35:28.580Z,19.60
2017-12-01T20:37:54.654Z,20.70
2017-12-01T20:40:20.539Z,24.00
2017-12-01T20:42:46.387Z,22.13
2017-12-01T20:45:12.255Z,58.00
2017-12-01T20:47:38.136Z,32.57
2017-12-01T20:50:03.971Z,20.20
2017-12-01T20:52:29.831Z,22.97
2017-12-01T20:54:55.650Z,23.50
2017-12-01T20:57:21.495Z,47.87
2017-12-01T20:59:47.399Z,22.17
2017-12-01T21:02:13.230Z,29.83
2017-12-01T21:04:39.046Z,25.07
2017-12-01T21:07:04.922Z,25.20
2017-12-01T21:09:30.736Z,30.67
2017-12-01T21:11:56.564Z,27.83
2017-12-01T21:14:22.460Z,22.60
2017-12-01T21:16:48.279Z,36.10
2017-12-01T21:19:14.082Z,23.13
2017-12-01T21:21:40.197Z,23.53
2017-12-01T21:24:06.021Z,25.00
2017-12-01T21:26:31.876Z,25.73
2017-12-01T21:28:57.703Z,22.03
2017-12-01T21:31:23.502Z,22.70
2017-12-01T21:33:49.310Z,25.10
2017-12-01T21:36:15.139Z,31.77
2017-12-01T21:38:40.944Z,26.50
2017-12-01T21:41:06.739Z,23.73
2017-12-01T21:43:32.570Z,25.33
2017-12-01T21:45:58.391Z,26.57
2017-12-01T21:48:24.201Z,26.00
2017-12-01T21:50:50.050Z,25.40
2017-12-01T21:53:15.830Z,24.60
2017-12-01T21:55:41.619Z,23.50
2017-12-01T21:58:07.426Z,36.40
2017-12-01T22:00:33.225Z,26.57
2017-12-01T22:02:59.022Z,25.97
2017-12-01T22:05:24.826Z,25.30
2017-12-01T22:07:50.623Z,26.07
2017-12-01T22:10:16.415Z,25.07
2017-12-01T22:12:42.310Z,24.20
2017-12-01T22:15:08.111Z,23.40
2017-12-01T22:17:33.914Z,25.50
2017-12-01T22:19:59.940Z,22.30
2017-12-01T22:22:25.743Z,23.17
2017-12-01T22:24:51.540Z,23.37
2017-12-01T22:27:17.411Z,30.40
2017-12-01T22:29:43.206Z,22.80
2017-12-01T22:32:09.017Z,24.40
2017-12-01T22:34:34.822Z,33.53
2017-12-01T22:37:00.594Z,21.43
2017-12-01T22:39:26.399Z,19.83
2017-12-01T22:41:52.492Z,33.33
2017-12-01T22:44:18.273Z,24.65
2017-12-01T22:46:44.078Z,21.30
2017-12-01T22:49:10.134Z,23.50
2017-12-01T22:51:35.923Z,19.23
2017-12-01T22:54:01.712Z,16.23
2017-12-01T22:56:27.904Z,20.33
2017-12-01T22:58:53.677Z,24.10
2017-12-01T23:01:19.479Z,22.03
2017-12-01T23:03:45.564Z,19.90
2017-12-01T23:06:11.397Z,19.87
2017-12-01T23:08:37.151Z,19.27
2017-12-01T23:11:02.991Z,19.50
2017-12-01T23:13:29.049Z,23.57
2017-12-01T23:15:54.846Z,21.50
2017-12-01T23:18:20.663Z,22.53
2017-12-01T23:20:46.457Z,21.60
2017-12-01T23:23:12.245Z,20.13
2017-12-01T23:25:38.034Z,22.33
2017-12-01T23:28:03.830Z,20.60
2017-12-01T23:30:29.881Z,22.20
2017-12-01T23:32:55.646Z,15.68
2017-12-01T23:35:21.433Z,19.90
2017-12-01T23:37:47.224Z,20.40
2017-12-01T23:40:13.007Z,18.03
2017-12-01T23:42:38.800Z,12.77
2017-12-01T23:45:04.637Z,16.67
2017-12-01T23:47:30.434Z,21.70
2017-12-01T23:49:56.227Z,21.00
2017-12-01T23:52:22.031Z,21.30
2017-12-01T23:54:47.854Z,19.80
2017-12-01T23:57:13.826Z,22.70
2017-12-01T23:59:39.638Z,21.50
